createdAt,value
2022-12-12T00:00:24.426Z,99113.31
2022-12-12T00:03:27.175Z,99114.38
2022-12-12T00:06:29.645Z,99116.19
2022-12-12T00:09:32.043Z,99119.94
2022-12-12T00:12:34.205Z,99130.56
2022-12-12T00:15:36.869Z,99132.44
2022-12-12T00:18:39.736Z,99140.37
2022-12-12T00:21:42.198Z,99135.38
2022-12-12T00:24:44.274Z,99137.47
2022-12-12T00:27:46.683Z,99143.88
2022-12-12T00:30:48.839Z,99139.34
2022-12-12T00:33:51.325Z,99149.69
2022-12-12T00:36:53.445Z,99149.41
2022-12-12T00:39:55.809Z,99170.16
2022-12-12T00:42:57.972Z,99182.62
2022-12-12T00:46:01.553Z,99172.28
2022-12-12T00:49:03.988Z,99180.50
2022-12-12T00:52:06.382Z,99181.81
2022-12-12T00:55:11.934Z,99176.50
2022-12-12T00:58:14.552Z,99169.87
2022-12-12T01:01:20.343Z,99169.87
2022-12-12T01:04:22.740Z,99168.84
2022-12-12T01:07:24.832Z,99162.72
2022-12-12T01:10:27.399Z,99162.19
2022-12-12T01:13:30.090Z,99165.91
2022-12-12T01:16:32.551Z,99167.50
2022-12-12T01:19:34.690Z,99168.00
2022-12-12T01:22:37.413Z,99164.84
2022-12-12T01:25:40.028Z,99162.19
2022-12-12T01:28:43.815Z,99167.22
2022-12-12T01:31:45.996Z,99158.47
2022-12-12T01:34:48.486Z,99152.34
2022-12-12T01:37:51.008Z,99151.03
2022-12-12T01:40:54.260Z,99135.13
2022-12-12T01:43:56.476Z,99141.72
2022-12-12T01:46:58.936Z,99133.78
2022-12-12T01:50:06.306Z,99129.00
2022-12-12T01:53:09.668Z,99123.94
2022-12-12T01:56:15.110Z,99123.94
2022-12-12T01:59:21.063Z,99127.13
2022-12-12T02:02:23.321Z,99130.84
2022-12-12T02:05:34.750Z,99117.31
2022-12-12T02:08:37.513Z,99125.00
2022-12-12T02:11:51.964Z,99128.97
2022-12-12T02:14:54.671Z,99124.75
2022-12-12T02:18:12.645Z,99140.41
2022-12-12T02:21:22.800Z,99141.19
2022-12-12T02:24:47.892Z,99149.44
2022-12-12T02:28:05.353Z,99153.16
2022-12-12T02:31:22.105Z,99145.72
2022-12-12T02:34:44.128Z,99150.22
2022-12-12T02:37:55.507Z,99157.41
2022-12-12T02:41:14.009Z,99149.19
2022-12-12T02:44:39.413Z,99148.91
2022-12-12T02:47:48.425Z,99160.03
2022-12-12T02:50:54.225Z,99159.00
2022-12-12T02:53:59.858Z,99156.59
2022-12-12T02:57:03.480Z,99161.66
2022-12-12T03:00:12.551Z,99160.88
2022-12-12T03:03:51.118Z,99147.84
2022-12-12T03:07:28.144Z,99157.91
2022-12-12T03:10:55.307Z,99169.31
2022-12-12T03:14:12.450Z,99161.09
2022-12-12T03:17:45.811Z,99170.63
2022-12-12T03:20:53.754Z,99157.38
2022-12-12T03:24:02.894Z,99155.78
2022-12-12T03:27:11.510Z,99158.16
2022-12-12T03:30:17.673Z,99158.69
2022-12-12T03:33:29.125Z,99157.09
2022-12-12T03:36:42.119Z,99160.25
2022-12-12T03:39:56.511Z,99172.94
2022-12-12T03:43:31.878Z,99176.13
2022-12-12T03:46:42.321Z,99173.25
2022-12-12T03:49:55.280Z,99187.56
2022-12-12T03:53:08.344Z,99217.28
2022-12-12T03:56:19.596Z,99201.37
2022-12-12T03:59:30.322Z,99211.19
2022-12-12T04:02:53.691Z,99210.94
2022-12-12T04:06:28.561Z,99219.94
2022-12-12T04:09:49.569Z,99219.66
2022-12-12T04:13:01.035Z,99234.25
2022-12-12T04:16:15.299Z,99232.09
2022-12-12T04:19:44.494Z,99245.28
2022-12-12T04:23:15.167Z,99247.16
2022-12-12T04:26:39.655Z,99257.31
2022-12-12T04:30:00.572Z,99258.41
2022-12-12T04:33:09.044Z,99258.62
2022-12-12T04:36:15.181Z,99262.28
2022-12-12T04:39:20.337Z,99264.38
2022-12-12T04:42:26.264Z,99268.34
2022-12-12T04:45:34.420Z,99267.78
2022-12-12T04:48:53.345Z,99269.19
2022-12-12T04:52:01.527Z,99283.25
2022-12-12T04:55:11.147Z,99285.13
2022-12-12T04:58:15.015Z,99293.06
2022-12-12T05:01:26.428Z,99283.19
2022-12-12T05:04:56.174Z,99285.09
2022-12-12T05:08:06.688Z,99293.59
2022-12-12T05:11:11.085Z,99295.19
2022-12-12T05:14:15.758Z,99288.81
2022-12-12T05:17:27.397Z,99295.62
2022-12-12T05:20:29.725Z,99292.69
2022-12-12T05:23:34.762Z,99304.62
2022-12-12T05:26:41.057Z,99305.00
2022-12-12T05:29:43.452Z,99311.09
2022-12-12T05:32:45.529Z,99315.25
2022-12-12T05:35:48.615Z,99321.06
2022-12-12T05:38:50.703Z,99315.13
2022-12-12T05:41:53.112Z,99323.22
2022-12-12T05:44:55.295Z,99329.75
2022-12-12T05:47:57.883Z,99325.00
2022-12-12T05:51:04.023Z,99332.63
2022-12-12T05:54:06.462Z,99327.66
2022-12-12T05:57:09.119Z,99331.09
2022-12-12T06:00:11.846Z,99338.75
2022-12-12T06:03:14.665Z,99330.03
2022-12-12T06:06:16.840Z,99337.59
2022-12-12T06:09:19.197Z,99342.53
2022-12-12T06:12:21.481Z,99337.72
2022-12-12T06:15:24.002Z,99337.19
2022-12-12T06:18:26.226Z,99346.16
2022-12-12T06:21:28.576Z,99347.25
2022-12-12T06:24:30.741Z,99352.38
2022-12-12T06:27:33.231Z,99357.16
2022-12-12T06:30:35.579Z,99361.81
2022-12-12T06:33:38.437Z,99359.19
2022-12-12T06:36:40.604Z,99369.31
2022-12-12T06:39:43.101Z,99377.94
2022-12-12T06:42:48.556Z,99373.09
2022-12-12T06:45:52.063Z,99375.41
2022-12-12T06:48:55.911Z,99382.25
2022-12-12T06:51:58.367Z,99381.75
2022-12-12T06:55:01.047Z,99392.09
2022-12-12T06:58:03.445Z,99391.63
2022-12-12T07:01:06.445Z,99394.34
2022-12-12T07:04:16.935Z,99390.34
2022-12-12T07:07:19.108Z,99394.22
2022-12-12T07:10:21.686Z,99395.41
2022-12-12T07:13:23.760Z,99401.94
2022-12-12T07:16:26.185Z,99405.19
2022-12-12T07:19:28.397Z,99400.34
2022-12-12T07:22:30.799Z,99401.41
2022-12-12T07:25:33.358Z,99408.34
2022-12-12T07:28:38.090Z,99407.72
2022-12-12T07:31:40.179Z,99408.25
2022-12-12T07:34:42.621Z,99418.31
2022-12-12T07:37:44.706Z,99420.56
2022-12-12T07:40:47.443Z,99419.38
2022-12-12T07:43:51.038Z,99417.72
2022-12-12T07:46:53.571Z,99423.13
2022-12-12T07:49:55.751Z,99432.72
2022-12-12T07:52:58.109Z,99431.56
2022-12-12T07:56:00.274Z,99426.81
2022-12-12T07:59:03.831Z,99426.59
2022-12-12T08:02:06.333Z,99426.38
2022-12-12T08:05:09.031Z,99429.00
2022-12-12T08:08:11.547Z,99444.69
2022-12-12T08:11:17.096Z,99447.16
2022-12-12T08:14:19.373Z,99448.28
2022-12-12T08:17:21.877Z,99452.16
2022-12-12T08:20:23.990Z,99444.19
2022-12-12T08:23:26.411Z,99449.12
2022-12-12T08:26:29.854Z,99453.28
2022-12-12T08:29:32.267Z,99456.06
2022-12-12T08:32:34.432Z,99454.50
2022-12-12T08:35:36.806Z,99469.56
2022-12-12T08:38:39.003Z,99470.56
2022-12-12T08:41:43.715Z,99472.78
2022-12-12T08:44:45.865Z,99466.81
2022-12-12T08:47:48.812Z,99461.72
2022-12-12T08:50:52.472Z,99464.69
2022-12-12T08:53:55.381Z,99459.69
2022-12-12T08:56:57.820Z,99457.34
2022-12-12T09:00:00.144Z,99447.31
2022-12-12T09:03:02.428Z,99444.91
2022-12-12T09:06:07.002Z,99457.44
2022-12-12T09:09:09.214Z,99463.78
2022-12-12T09:12:11.661Z,99464.84
2022-12-12T09:15:14.625Z,99462.75
2022-12-12T09:18:17.371Z,99457.19
2022-12-12T09:21:20.469Z,99453.75
2022-12-12T09:24:24.122Z,99475.03
2022-12-12T09:27:26.406Z,99473.50
2022-12-12T09:30:28.766Z,99472.41
2022-12-12T09:33:30.916Z,99476.69
2022-12-12T09:36:33.312Z,99473.56
2022-12-12T09:39:35.480Z,99475.44
2022-12-12T09:42:47.144Z,99483.31
2022-12-12T09:45:50.165Z,99470.78
2022-12-12T09:48:57.104Z,99467.19
2022-12-12T09:52:01.104Z,99456.31
2022-12-12T09:55:23.273Z,99456.34
2022-12-12T09:58:47.316Z,99463.50
2022-12-12T10:01:59.636Z,99463.00
2022-12-12T10:05:09.122Z,99471.75
2022-12-12T10:08:32.983Z,99492.47
2022-12-12T10:11:55.785Z,99490.63
2022-12-12T10:15:13.137Z,99488.19
2022-12-12T10:18:35.381Z,99481.28
2022-12-12T10:21:41.169Z,99491.66
2022-12-12T10:24:50.853Z,99497.03
2022-12-12T10:28:14.220Z,99498.00
2022-12-12T10:31:24.356Z,99521.44
2022-12-12T10:34:32.551Z,99494.59
2022-12-12T10:38:17.491Z,99503.81
2022-12-12T10:41:29.141Z,99528.25
2022-12-12T10:44:45.585Z,99524.34
2022-12-12T10:47:49.604Z,99511.03
2022-12-12T10:51:02.379Z,99516.94
2022-12-12T10:54:22.183Z,99506.94
2022-12-12T10:57:28.005Z,99501.72
2022-12-12T11:00:41.801Z,99506.75
2022-12-12T11:03:53.698Z,99514.44
2022-12-12T11:06:56.253Z,99516.06
2022-12-12T11:10:01.875Z,99516.62
2022-12-12T11:13:10.639Z,99498.94
2022-12-12T11:16:17.835Z,99501.53
2022-12-12T11:19:22.633Z,99505.34
2022-12-12T11:22:26.248Z,99505.06
2022-12-12T11:25:31.645Z,99515.97
2022-12-12T11:28:38.577Z,99505.34
2022-12-12T11:31:43.856Z,99516.16
2022-12-12T11:34:51.542Z,99519.88
2022-12-12T11:38:22.204Z,99527.81
2022-12-12T11:41:24.607Z,99522.66
2022-12-12T11:44:35.239Z,99523.47
2022-12-12T11:47:43.817Z,99536.87
2022-12-12T11:50:46.546Z,99542.41
2022-12-12T11:53:49.054Z,99545.81
2022-12-12T11:57:06.244Z,99539.72
2022-12-12T12:00:16.335Z,99551.97
2022-12-12T12:03:44.823Z,99547.94
2022-12-12T12:07:31.025Z,99550.28
2022-12-12T12:10:48.363Z,99541.22
2022-12-12T12:14:19.123Z,99540.72
2022-12-12T12:17:43.564Z,99542.22
2022-12-12T12:21:15.550Z,99555.47
2022-12-12T12:24:38.615Z,99536.66
2022-12-12T12:27:54.916Z,99543.16
2022-12-12T12:31:03.560Z,99532.16
2022-12-12T12:34:11.829Z,99538.28
2022-12-12T12:37:17.561Z,99552.34
2022-12-12T12:40:53.337Z,99540.81
2022-12-12T12:44:23.101Z,99523.19
2022-12-12T12:47:41.741Z,99529.50
2022-12-12T12:50:50.114Z,99525.31
2022-12-12T12:54:06.722Z,99537.72
2022-12-12T12:57:19.569Z,99528.00
2022-12-12T13:00:28.758Z,99549.81
2022-12-12T13:03:40.633Z,99540.16
2022-12-12T13:07:01.729Z,99540.16
2022-12-12T13:10:31.087Z,99549.25
2022-12-12T13:13:38.766Z,99540.81
2022-12-12T13:16:42.700Z,99558.03
2022-12-12T13:19:49.820Z,99557.06
2022-12-12T13:22:58.219Z,99550.66
2022-12-12T13:26:11.869Z,99551.25
2022-12-12T13:29:44.679Z,99564.81
2022-12-12T13:33:13.603Z,99568.06
2022-12-12T13:36:29.531Z,99567.63
2022-12-12T13:39:38.081Z,99566.47
2022-12-12T13:43:10.060Z,99568.97
2022-12-12T13:46:22.095Z,99568.47
2022-12-12T13:49:30.353Z,99571.31
2022-12-12T13:52:35.222Z,99564.75
2022-12-12T13:55:38.324Z,99573.59
2022-12-12T13:58:40.447Z,99577.41
2022-12-12T14:01:43.053Z,99575.53
2022-12-12T14:04:46.592Z,99586.50
2022-12-12T14:07:52.475Z,99584.13
2022-12-12T14:10:59.891Z,99582.84
2022-12-12T14:14:22.008Z,99573.34
2022-12-12T14:17:26.731Z,99578.34
2022-12-12T14:20:33.200Z,99570.28
2022-12-12T14:23:41.860Z,99569.50
2022-12-12T14:26:44.227Z,99569.69
2022-12-12T14:29:46.612Z,99569.72
2022-12-12T14:33:07.883Z,99568.81
2022-12-12T14:36:31.528Z,99569.03
2022-12-12T14:39:51.556Z,99562.19
2022-12-12T14:43:20.263Z,99562.75
2022-12-12T14:46:24.744Z,99562.34
2022-12-12T14:49:27.267Z,99576.25
2022-12-12T14:52:29.455Z,99568.66
2022-12-12T14:55:31.966Z,99571.72
2022-12-12T14:58:41.355Z,99568.75
2022-12-12T15:01:50.315Z,99570.94
2022-12-12T15:05:00.891Z,99585.91
2022-12-12T15:08:19.301Z,99588.03
2022-12-12T15:11:30.498Z,99586.88
2022-12-12T15:14:32.952Z,99587.66
2022-12-12T15:17:49.713Z,99590.91
2022-12-12T15:20:57.297Z,99590.44
2022-12-12T15:23:59.690Z,99593.97
2022-12-12T15:27:02.200Z,99602.63
2022-12-12T15:30:21.716Z,99613.25
2022-12-12T15:33:27.554Z,99615.31
2022-12-12T15:36:29.817Z,99623.78
2022-12-12T15:39:32.263Z,99616.44
2022-12-12T15:42:40.277Z,99618.91
2022-12-12T15:45:49.413Z,99620.75
2022-12-12T15:48:51.515Z,99631.75
2022-12-12T15:51:54.114Z,99623.72
2022-12-12T15:55:03.094Z,99623.72
2022-12-12T15:58:05.567Z,99633.59
2022-12-12T16:01:20.774Z,99630.53
2022-12-12T16:04:26.102Z,99626.13
2022-12-12T16:07:29.564Z,99640.66
2022-12-12T16:10:31.998Z,99642.50
2022-12-12T16:13:41.878Z,99638.19
2022-12-12T16:16:48.250Z,99641.22
2022-12-12T16:20:07.423Z,99644.56
2022-12-12T16:23:22.844Z,99660.06
2022-12-12T16:26:25.026Z,99648.94
2022-12-12T16:29:27.635Z,99643.41
2022-12-12T16:32:29.828Z,99640.34
2022-12-12T16:35:34.815Z,99646.47
2022-12-12T16:38:40.146Z,99642.75
2022-12-12T16:41:42.829Z,99643.75
2022-12-12T16:44:47.125Z,99638.31
2022-12-12T16:47:49.697Z,99646.50
2022-12-12T16:50:56.673Z,99645.28
2022-12-12T16:53:59.996Z,99638.72
2022-12-12T16:57:02.193Z,99635.87
2022-12-12T17:00:05.268Z,99642.37
2022-12-12T17:03:07.774Z,99656.66
2022-12-12T17:06:10.270Z,99649.22
2022-12-12T17:09:12.445Z,99645.03
2022-12-12T17:12:15.744Z,99634.47
2022-12-12T17:15:22.859Z,99639.31
2022-12-12T17:18:25.342Z,99650.72
2022-12-12T17:21:27.434Z,99647.22
2022-12-12T17:24:30.094Z,99660.56
2022-12-12T17:27:32.245Z,99659.06
2022-12-12T17:30:36.821Z,99659.47
2022-12-12T17:33:49.561Z,99663.78
2022-12-12T17:36:52.692Z,99666.50
2022-12-12T17:39:54.884Z,99680.06
2022-12-12T17:42:57.700Z,99674.75
2022-12-12T17:46:03.239Z,99677.66
2022-12-12T17:49:05.832Z,99684.91
2022-12-12T17:52:07.997Z,99681.91
2022-12-12T17:55:53.432Z,99684.31
2022-12-12T17:58:34.412Z,99685.06
2022-12-12T18:01:37.067Z,99696.97
2022-12-12T18:04:40.403Z,99698.34
2022-12-12T18:07:42.654Z,99694.06
2022-12-12T18:10:45.632Z,99700.56
2022-12-12T18:13:48.546Z,99701.41
2022-12-12T18:16:52.974Z,99696.87
2022-12-12T18:19:55.309Z,99702.75
2022-12-12T18:22:58.296Z,99701.88
2022-12-12T18:26:10.437Z,99700.56
2022-12-12T18:29:13.522Z,99705.66
2022-12-12T18:32:15.833Z,99705.13
2022-12-12T18:35:19.106Z,99708.53
2022-12-12T18:38:21.301Z,99704.22
2022-12-12T18:41:26.350Z,99708.72
2022-12-12T18:44:28.568Z,99710.09
2022-12-12T18:47:31.162Z,99705.28
2022-12-12T18:50:34.475Z,99716.28
2022-12-12T18:53:38.923Z,99711.75
2022-12-12T18:56:45.062Z,99714.66
2022-12-12T18:59:47.634Z,99711.63
2022-12-12T19:02:49.973Z,99729.28
2022-12-12T19:05:52.633Z,99727.44
2022-12-12T19:08:54.996Z,99728.47
2022-12-12T19:12:02.224Z,99728.69
2022-12-12T19:15:16.887Z,99738.31
2022-12-12T19:18:20.713Z,99739.84
2022-12-12T19:21:25.433Z,99736.72
2022-12-12T19:24:27.917Z,99747.34
2022-12-12T19:27:31.618Z,99750.56
2022-12-12T19:30:38.397Z,99750.50
2022-12-12T19:33:42.399Z,99757.97
2022-12-12T19:36:44.954Z,99766.31
2022-12-12T19:39:48.586Z,99773.94
2022-12-12T19:42:51.266Z,99772.69
2022-12-12T19:46:07.327Z,99777.22
2022-12-12T19:49:12.996Z,99780.87
2022-12-12T19:52:15.272Z,99785.16
2022-12-12T19:55:17.954Z,99777.34
2022-12-12T19:58:20.156Z,99778.78
2022-12-12T20:01:26.953Z,99788.59
2022-12-12T20:04:30.616Z,99790.28
2022-12-12T20:07:32.917Z,99796.66
2022-12-12T20:10:36.533Z,99797.19
2022-12-12T20:13:39.212Z,99811.44
2022-12-12T20:16:42.588Z,99813.31
2022-12-12T20:19:47.237Z,99818.34
2022-12-12T20:22:49.777Z,99817.00
2022-12-12T20:25:52.020Z,99815.25
2022-12-12T20:28:57.605Z,99818.59
2022-12-12T20:32:01.261Z,99821.44
2022-12-12T20:35:04.373Z,99828.63
2022-12-12T20:38:06.728Z,99828.97
2022-12-12T20:41:18.033Z,99818.59
2022-12-12T20:44:20.273Z,99816.63
2022-12-12T20:47:23.156Z,99821.47
2022-12-12T20:50:26.208Z,99817.22
2022-12-12T20:53:33.431Z,99821.53
2022-12-12T20:56:44.517Z,99820.13
2022-12-12T20:59:48.637Z,99812.72
2022-12-12T21:02:50.918Z,99817.47
2022-12-12T21:05:54.354Z,99820.19
2022-12-12T21:08:59.963Z,99816.34
2022-12-12T21:12:02.757Z,99822.53
2022-12-12T21:15:05.220Z,99825.50
2022-12-12T21:18:07.688Z,99820.19
2022-12-12T21:21:11.820Z,99817.91
2022-12-12T21:24:17.062Z,99816.00
2022-12-12T21:27:19.188Z,99822.97
2022-12-12T21:30:21.790Z,99824.28
2022-12-12T21:33:24.297Z,99825.81
2022-12-12T21:36:28.153Z,99827.75
2022-12-12T21:39:30.389Z,99830.12
2022-12-12T21:42:34.160Z,99838.66
2022-12-12T21:45:39.574Z,99832.84
2022-12-12T21:48:42.340Z,99834.28
2022-12-12T21:51:44.775Z,99840.25
2022-12-12T21:54:47.380Z,99839.69
2022-12-12T21:57:49.603Z,99846.13
2022-12-12T22:00:52.123Z,99842.38
2022-12-12T22:03:55.272Z,99839.88
2022-12-12T22:06:58.048Z,99841.91
2022-12-12T22:10:11.408Z,99844.06
2022-12-12T22:13:14.012Z,99840.87
2022-12-12T22:16:19.506Z,99842.47
2022-12-12T22:19:21.778Z,99832.59
2022-12-12T22:22:25.187Z,99830.69
2022-12-12T22:25:30.545Z,99827.47
2022-12-12T22:28:32.963Z,99838.22
2022-12-12T22:31:39.680Z,99835.19
2022-12-12T22:34:44.068Z,99832.25
2022-12-12T22:37:46.197Z,99840.50
2022-12-12T22:40:55.311Z,99836.94
2022-12-12T22:44:00.325Z,99841.78
2022-12-12T22:47:02.757Z,99837.19
2022-12-12T22:50:05.425Z,99840.50
2022-12-12T22:53:08.649Z,99840.44
2022-12-12T22:56:11.514Z,99846.81
2022-12-12T22:59:14.544Z,99843.53
2022-12-12T23:02:21.537Z,99844.75
2022-12-12T23:05:27.230Z,99853.47
2022-12-12T23:08:29.491Z,99854.69
2022-12-12T23:11:33.392Z,99857.66
2022-12-12T23:14:35.529Z,99858.47
2022-12-12T23:17:37.954Z,99860.56
2022-12-12T23:20:40.145Z,99860.56
2022-12-12T23:23:42.769Z,99864.56
2022-12-12T23:26:45.072Z,99861.28
2022-12-12T23:29:47.442Z,99862.91
2022-12-12T23:32:49.555Z,99869.25
2022-12-12T23:35:52.701Z,99865.47
2022-12-12T23:38:59.799Z,99872.16
2022-12-12T23:42:02.364Z,99868.88
2022-12-12T23:45:05.052Z,99871.72
2022-12-12T23:48:07.921Z,99868.97
2022-12-12T23:51:10.079Z,99872.97
2022-12-12T23:54:17.667Z,99878.78
2022-12-12T23:57:19.836Z,99865.94
